sensor_id;sensor_type;location;lat;lon;timestamp;P1;durP1;ratioP1;P2;durP2;ratioP2
6527;SDS011;64597;42.664;23.256;2023-05-07T00:01:07;4.45;;;3.05;;
6527;SDS011;64597;42.664;23.256;2023-05-07T00:03:41;5.75;;;3.67;;
6527;SDS011;64597;42.664;23.256;2023-05-07T00:06:13;5.03;;;3.13;;
6527;SDS011;64597;42.664;23.256;2023-05-07T00:08:47;5.53;;;3.55;;
6527;SDS011;64597;42.664;23.256;2023-05-07T00:11:19;5.40;;;3.58;;
6527;SDS011;64597;42.664;23.256;2023-05-07T00:13:55;7.93;;;3.33;;
6527;SDS011;64597;42.664;23.256;2023-05-07T00:16:36;4.93;;;3.47;;
6527;SDS011;64597;42.664;23.256;2023-05-07T00:19:22;5.88;;;3.30;;
6527;SDS011;64597;42.664;23.256;2023-05-07T00:22:03;5.35;;;3.83;;
6527;SDS011;64597;42.664;23.256;2023-05-07T00:24:48;5.00;;;3.40;;
6527;SDS011;64597;42.664;23.256;2023-05-07T00:27:24;4.95;;;3.50;;
6527;SDS011;64597;42.664;23.256;2023-05-07T00:29:59;4.30;;;3.55;;
6527;SDS011;64597;42.664;23.256;2023-05-07T00:32:35;5.65;;;3.55;;
6527;SDS011;64597;42.664;23.256;2023-05-07T00:35:07;5.45;;;3.55;;
6527;SDS011;64597;42.664;23.256;2023-05-07T00:37:39;5.55;;;3.75;;
6527;SDS011;64597;42.664;23.256;2023-05-07T00:40:19;4.90;;;3.75;;
6527;SDS011;64597;42.664;23.256;2023-05-07T00:42:53;4.75;;;3.20;;
6527;SDS011;64597;42.664;23.256;2023-05-07T00:45:26;3.83;;;3.40;;
6527;SDS011;64597;42.664;23.256;2023-05-07T00:47:59;7.10;;;3.20;;
6527;SDS011;64597;42.664;23.256;2023-05-07T00:50:33;5.72;;;3.35;;
6527;SDS011;64597;42.664;23.256;2023-05-07T00:53:09;5.63;;;3.47;;
6527;SDS011;64597;42.664;23.256;2023-05-07T00:55:47;7.85;;;3.40;;
6527;SDS011;64597;42.664;23.256;2023-05-07T00:58:19;4.82;;;3.20;;
6527;SDS011;64597;42.664;23.256;2023-05-07T01:00:53;4.85;;;3.50;;
6527;SDS011;64597;42.664;23.256;2023-05-07T01:03:27;6.45;;;3.88;;
6527;SDS011;64597;42.664;23.256;2023-05-07T01:06:03;7.53;;;3.55;;
6527;SDS011;64597;42.664;23.256;2023-05-07T01:08:39;6.85;;;4.38;;
6527;SDS011;64597;42.664;23.256;2023-05-07T01:11:15;5.72;;;4.18;;
6527;SDS011;64597;42.664;23.256;2023-05-07T01:13:50;7.18;;;4.22;;
6527;SDS011;64597;42.664;23.256;2023-05-07T01:16:26;5.97;;;3.80;;
6527;SDS011;64597;42.664;23.256;2023-05-07T01:19:01;4.95;;;3.50;;
6527;SDS011;64597;42.664;23.256;2023-05-07T01:21:38;5.85;;;3.60;;
6527;SDS011;64597;42.664;23.256;2023-05-07T01:24:17;6.85;;;4.07;;
6527;SDS011;64597;42.664;23.256;2023-05-07T01:26:53;6.85;;;3.88;;
6527;SDS011;64597;42.664;23.256;2023-05-07T01:29:27;4.63;;;3.60;;
6527;SDS011;64597;42.664;23.256;2023-05-07T01:32:05;9.15;;;4.40;;
6527;SDS011;64597;42.664;23.256;2023-05-07T01:34:40;5.45;;;3.53;;
6527;SDS011;64597;42.664;23.256;2023-05-07T01:37:15;5.30;;;3.22;;
6527;SDS011;64597;42.664;23.256;2023-05-07T01:39:49;5.85;;;4.20;;
6527;SDS011;64597;42.664;23.256;2023-05-07T01:42:17;4.88;;;3.72;;
6527;SDS011;64597;42.664;23.256;2023-05-07T01:44:54;6.95;;;3.88;;
6527;SDS011;64597;42.664;23.256;2023-05-07T01:47:27;4.90;;;3.90;;
6527;SDS011;64597;42.664;23.256;2023-05-07T01:50:03;5.03;;;3.78;;
6527;SDS011;64597;42.664;23.256;2023-05-07T01:52:41;7.68;;;4.72;;
6527;SDS011;64597;42.664;23.256;2023-05-07T01:55:15;7.25;;;3.88;;
6527;SDS011;64597;42.664;23.256;2023-05-07T01:57:51;8.07;;;3.70;;
6527;SDS011;64597;42.664;23.256;2023-05-07T02:00:25;6.22;;;4.13;;
6527;SDS011;64597;42.664;23.256;2023-05-07T02:02:59;6.85;;;3.50;;
6527;SDS011;64597;42.664;23.256;2023-05-07T02:05:32;5.13;;;3.20;;
6527;SDS011;64597;42.664;23.256;2023-05-07T02:08:05;4.28;;;3.33;;
6527;SDS011;64597;42.664;23.256;2023-05-07T02:10:37;4.25;;;3.58;;
6527;SDS011;64597;42.664;23.256;2023-05-07T02:13:11;4.30;;;3.10;;
6527;SDS011;64597;42.664;23.256;2023-05-07T02:15:46;5.95;;;3.58;;
6527;SDS011;64597;42.664;23.256;2023-05-07T02:18:21;6.47;;;3.35;;
6527;SDS011;64597;42.664;23.256;2023-05-07T02:20:57;4.80;;;3.13;;
6527;SDS011;64597;42.664;23.256;2023-05-07T02:23:29;6.50;;;4.03;;
6527;SDS011;64597;42.664;23.256;2023-05-07T02:26:17;5.63;;;4.18;;
6527;SDS011;64597;42.664;23.256;2023-05-07T02:29:05;6.38;;;3.60;;
6527;SDS011;64597;42.664;23.256;2023-05-07T02:31:39;5.95;;;3.88;;
6527;SDS011;64597;42.664;23.256;2023-05-07T02:34:22;6.60;;;3.78;;
6527;SDS011;64597;42.664;23.256;2023-05-07T02:36:51;6.95;;;3.80;;
6527;SDS011;64597;42.664;23.256;2023-05-07T02:39:27;6.47;;;3.65;;
6527;SDS011;64597;42.664;23.256;2023-05-07T02:41:57;6.72;;;3.90;;
6527;SDS011;64597;42.664;23.256;2023-05-07T02:44:31;4.32;;;3.72;;
6527;SDS011;64597;42.664;23.256;2023-05-07T02:47:11;5.95;;;3.50;;
6527;SDS011;64597;42.664;23.256;2023-05-07T02:49:56;7.25;;;4.10;;
6527;SDS011;64597;42.664;23.256;2023-05-07T02:52:28;4.60;;;3.08;;
6527;SDS011;64597;42.664;23.256;2023-05-07T02:55:00;5.88;;;4.13;;
6527;SDS011;64597;42.664;23.256;2023-05-07T02:57:37;6.43;;;4.03;;
6527;SDS011;64597;42.664;23.256;2023-05-07T03:00:20;5.18;;;4.28;;
6527;SDS011;64597;42.664;23.256;2023-05-07T03:02:58;7.15;;;3.80;;
6527;SDS011;64597;42.664;23.256;2023-05-07T03:05:32;5.55;;;4.00;;
6527;SDS011;64597;42.664;23.256;2023-05-07T03:08:14;6.68;;;4.07;;
6527;SDS011;64597;42.664;23.256;2023-05-07T03:10:55;7.03;;;3.83;;
6527;SDS011;64597;42.664;23.256;2023-05-07T03:13:30;6.72;;;4.28;;
6527;SDS011;64597;42.664;23.256;2023-05-07T03:16:06;7.18;;;4.10;;
6527;SDS011;64597;42.664;23.256;2023-05-07T03:18:46;6.78;;;4.47;;
6527;SDS011;64597;42.664;23.256;2023-05-07T03:21:22;5.72;;;3.55;;
6527;SDS011;64597;42.664;23.256;2023-05-07T03:23:55;6.07;;;4.10;;
6527;SDS011;64597;42.664;23.256;2023-05-07T03:26:28;5.72;;;3.90;;
6527;SDS011;64597;42.664;23.256;2023-05-07T03:29:00;6.00;;;3.72;;
6527;SDS011;64597;42.664;23.256;2023-05-07T03:31:38;6.53;;;3.70;;
6527;SDS011;64597;42.664;23.256;2023-05-07T03:34:13;5.13;;;4.07;;
6527;SDS011;64597;42.664;23.256;2023-05-07T03:36:51;8.80;;;4.05;;
6527;SDS011;64597;42.664;23.256;2023-05-07T03:39:20;5.35;;;3.95;;
6527;SDS011;64597;42.664;23.256;2023-05-07T03:42:02;6.68;;;3.70;;
6527;SDS011;64597;42.664;23.256;2023-05-07T03:44:33;5.28;;;3.80;;
6527;SDS011;64597;42.664;23.256;2023-05-07T03:47:02;5.75;;;3.50;;
6527;SDS011;64597;42.664;23.256;2023-05-07T03:49:43;4.97;;;3.85;;
6527;SDS011;64597;42.664;23.256;2023-05-07T03:52:26;9.18;;;4.40;;
6527;SDS011;64597;42.664;23.256;2023-05-07T03:54:59;9.10;;;4.70;;
6527;SDS011;64597;42.664;23.256;2023-05-07T03:57:30;7.05;;;4.60;;
6527;SDS011;64597;42.664;23.256;2023-05-07T04:00:04;6.68;;;4.30;;
6527;SDS011;64597;42.664;23.256;2023-05-07T04:02:47;6.22;;;4.35;;
6527;SDS011;64597;42.664;23.256;2023-05-07T04:05:30;6.65;;;4.25;;
6527;SDS011;64597;42.664;23.256;2023-05-07T04:08:00;5.88;;;4.28;;
6527;SDS011;64597;42.664;23.256;2023-05-07T04:10:40;5.72;;;4.28;;
6527;SDS011;64597;42.664;23.256;2023-05-07T04:13:09;6.60;;;4.10;;
6527;SDS011;64597;42.664;23.256;2023-05-07T04:18:17;5.35;;;3.80;;
6527;SDS011;64597;42.664;23.256;2023-05-07T04:24:21;6.25;;;4.22;;
6527;SDS011;64597;42.664;23.256;2023-05-07T04:26:51;5.68;;;4.22;;
6527;SDS011;64597;42.664;23.256;2023-05-07T04:29:27;7.60;;;4.20;;
6527;SDS011;64597;42.664;23.256;2023-05-07T04:32:04;8.65;;;4.72;;
6527;SDS011;64597;42.664;23.256;2023-05-07T04:34:40;7.35;;;4.20;;
6527;SDS011;64597;42.664;23.256;2023-05-07T04:37:17;7.93;;;4.15;;
6527;SDS011;64597;42.664;23.256;2023-05-07T04:39:50;6.70;;;4.70;;
6527;SDS011;64597;42.664;23.256;2023-05-07T04:42:20;6.20;;;4.40;;
6527;SDS011;64597;42.664;23.256;2023-05-07T04:44:57;9.15;;;4.30;;
6527;SDS011;64597;42.664;23.256;2023-05-07T04:47:29;6.15;;;4.25;;
6527;SDS011;64597;42.664;23.256;2023-05-07T04:50:30;7.72;;;5.00;;
6527;SDS011;64597;42.664;23.256;2023-05-07T04:53:04;7.68;;;5.63;;
6527;SDS011;64597;42.664;23.256;2023-05-07T04:55:40;9.93;;;5.50;;
6527;SDS011;64597;42.664;23.256;2023-05-07T04:59:17;10.38;;;6.10;;
6527;SDS011;64597;42.664;23.256;2023-05-07T05:02:00;7.75;;;5.35;;
6527;SDS011;64597;42.664;23.256;2023-05-07T05:04:41;9.70;;;6.10;;
6527;SDS011;64597;42.664;23.256;2023-05-07T05:07:14;11.95;;;6.70;;
6527;SDS011;64597;42.664;23.256;2023-05-07T05:09:47;10.07;;;6.80;;
6527;SDS011;64597;42.664;23.256;2023-05-07T05:12:17;9.55;;;5.65;;
6527;SDS011;64597;42.664;23.256;2023-05-07T05:14:59;9.00;;;6.10;;
6527;SDS011;64597;42.664;23.256;2023-05-07T05:17:35;10.02;;;6.60;;
6527;SDS011;64597;42.664;23.256;2023-05-07T05:20:13;9.75;;;6.32;;
6527;SDS011;64597;42.664;23.256;2023-05-07T05:22:52;11.65;;;6.47;;
6527;SDS011;64597;42.664;23.256;2023-05-07T05:25:30;11.30;;;6.25;;
6527;SDS011;64597;42.664;23.256;2023-05-07T05:28:17;9.43;;;6.57;;
6527;SDS011;64597;42.664;23.256;2023-05-07T05:30:54;11.35;;;7.30;;
6527;SDS011;64597;42.664;23.256;2023-05-07T05:33:46;10.85;;;6.65;;
6527;SDS011;64597;42.664;23.256;2023-05-07T05:36:14;11.23;;;6.85;;
6527;SDS011;64597;42.664;23.256;2023-05-07T05:38:54;9.23;;;6.53;;
6527;SDS011;64597;42.664;23.256;2023-05-07T05:41:40;9.48;;;6.43;;
6527;SDS011;64597;42.664;23.256;2023-05-07T05:44:22;8.50;;;5.55;;
6527;SDS011;64597;42.664;23.256;2023-05-07T05:46:57;8.77;;;5.63;;
6527;SDS011;64597;42.664;23.256;2023-05-07T05:49:28;10.75;;;6.15;;
6527;SDS011;64597;42.664;23.256;2023-05-07T05:52:08;9.88;;;7.20;;
6527;SDS011;64597;42.664;23.256;2023-05-07T05:54:54;10.55;;;6.38;;
6527;SDS011;64597;42.664;23.256;2023-05-07T05:57:35;10.25;;;6.40;;
6527;SDS011;64597;42.664;23.256;2023-05-07T06:00:18;9.70;;;5.90;;
6527;SDS011;64597;42.664;23.256;2023-05-07T06:02:55;7.10;;;5.30;;
6527;SDS011;64597;42.664;23.256;2023-05-07T06:05:39;9.85;;;5.95;;
6527;SDS011;64597;42.664;23.256;2023-05-07T06:08:17;8.50;;;5.28;;
6527;SDS011;64597;42.664;23.256;2023-05-07T06:10:53;10.48;;;6.38;;
6527;SDS011;64597;42.664;23.256;2023-05-07T06:13:35;9.18;;;6.15;;
6527;SDS011;64597;42.664;23.256;2023-05-07T06:16:10;9.75;;;5.72;;
6527;SDS011;64597;42.664;23.256;2023-05-07T06:19:06;8.02;;;5.80;;
6527;SDS011;64597;42.664;23.256;2023-05-07T06:21:38;7.43;;;5.32;;
6527;SDS011;64597;42.664;23.256;2023-05-07T06:24:15;10.82;;;5.97;;
6527;SDS011;64597;42.664;23.256;2023-05-07T06:26:49;8.15;;;5.93;;
6527;SDS011;64597;42.664;23.256;2023-05-07T06:29:17;9.73;;;6.50;;
6527;SDS011;64597;42.664;23.256;2023-05-07T06:32:12;8.02;;;5.97;;
6527;SDS011;64597;42.664;23.256;2023-05-07T06:37:49;9.15;;;5.72;;
6527;SDS011;64597;42.664;23.256;2023-05-07T06:40:21;7.28;;;5.25;;
6527;SDS011;64597;42.664;23.256;2023-05-07T06:42:57;7.28;;;6.00;;
6527;SDS011;64597;42.664;23.256;2023-05-07T06:45:30;8.00;;;4.93;;
6527;SDS011;64597;42.664;23.256;2023-05-07T06:48:09;7.25;;;5.15;;
6527;SDS011;64597;42.664;23.256;2023-05-07T06:50:47;10.90;;;6.32;;
6527;SDS011;64597;42.664;23.256;2023-05-07T06:53:25;9.25;;;5.50;;
6527;SDS011;64597;42.664;23.256;2023-05-07T06:56:01;6.68;;;5.18;;
6527;SDS011;64597;42.664;23.256;2023-05-07T06:58:37;8.18;;;5.60;;
6527;SDS011;64597;42.664;23.256;2023-05-07T07:01:10;9.07;;;5.70;;
6527;SDS011;64597;42.664;23.256;2023-05-07T07:03:59;6.93;;;5.47;;
6527;SDS011;64597;42.664;23.256;2023-05-07T07:06:33;5.65;;;5.10;;
6527;SDS011;64597;42.664;23.256;2023-05-07T07:09:03;9.10;;;5.60;;
6527;SDS011;64597;42.664;23.256;2023-05-07T07:11:31;6.82;;;4.90;;
6527;SDS011;64597;42.664;23.256;2023-05-07T07:13:59;7.80;;;5.30;;
6527;SDS011;64597;42.664;23.256;2023-05-07T07:16:36;8.90;;;5.70;;
6527;SDS011;64597;42.664;23.256;2023-05-07T07:19:14;7.22;;;5.07;;
6527;SDS011;64597;42.664;23.256;2023-05-07T07:21:44;7.20;;;4.88;;
6527;SDS011;64597;42.664;23.256;2023-05-07T07:24:16;7.07;;;5.00;;
6527;SDS011;64597;42.664;23.256;2023-05-07T07:26:50;8.35;;;4.85;;
6527;SDS011;64597;42.664;23.256;2023-05-07T07:29:27;5.97;;;4.38;;
6527;SDS011;64597;42.664;23.256;2023-05-07T07:31:58;6.57;;;4.95;;
6527;SDS011;64597;42.664;23.256;2023-05-07T07:34:38;8.60;;;4.47;;
6527;SDS011;64597;42.664;23.256;2023-05-07T07:37:14;6.93;;;5.00;;
6527;SDS011;64597;42.664;23.256;2023-05-07T07:39:46;6.80;;;4.75;;
6527;SDS011;64597;42.664;23.256;2023-05-07T07:42:20;5.72;;;4.57;;
6527;SDS011;64597;42.664;23.256;2023-05-07T07:44:55;6.10;;;5.00;;
6527;SDS011;64597;42.664;23.256;2023-05-07T07:47:27;5.53;;;4.63;;
6527;SDS011;64597;42.664;23.256;2023-05-07T07:50:06;9.35;;;5.13;;
6527;SDS011;64597;42.664;23.256;2023-05-07T07:52:48;6.45;;;5.05;;
6527;SDS011;64597;42.664;23.256;2023-05-07T07:55:21;6.07;;;4.72;;
6527;SDS011;64597;42.664;23.256;2023-05-07T07:57:56;5.95;;;4.72;;
6527;SDS011;64597;42.664;23.256;2023-05-07T08:00:32;5.43;;;4.65;;
6527;SDS011;64597;42.664;23.256;2023-05-07T08:03:09;6.32;;;4.50;;
6527;SDS011;64597;42.664;23.256;2023-05-07T08:05:37;6.00;;;4.07;;
6527;SDS011;64597;42.664;23.256;2023-05-07T08:08:11;7.63;;;5.85;;
6527;SDS011;64597;42.664;23.256;2023-05-07T08:10:42;9.18;;;5.43;;
6527;SDS011;64597;42.664;23.256;2023-05-07T08:13:15;5.95;;;4.53;;
6527;SDS011;64597;42.664;23.256;2023-05-07T08:15:56;6.45;;;5.05;;
6527;SDS011;64597;42.664;23.256;2023-05-07T08:18:27;6.90;;;5.05;;
6527;SDS011;64597;42.664;23.256;2023-05-07T08:20:57;8.98;;;6.00;;
6527;SDS011;64597;42.664;23.256;2023-05-07T08:23:28;8.70;;;4.97;;
6527;SDS011;64597;42.664;23.256;2023-05-07T08:25:57;7.53;;;5.43;;
6527;SDS011;64597;42.664;23.256;2023-05-07T08:28:28;8.77;;;5.72;;
6527;SDS011;64597;42.664;23.256;2023-05-07T08:31:06;7.70;;;5.45;;
6527;SDS011;64597;42.664;23.256;2023-05-07T08:33:43;6.32;;;4.80;;
6527;SDS011;64597;42.664;23.256;2023-05-07T08:36:10;5.85;;;5.13;;
6527;SDS011;64597;42.664;23.256;2023-05-07T08:38:47;6.70;;;4.05;;
6527;SDS011;64597;42.664;23.256;2023-05-07T08:41:23;6.10;;;4.57;;
6527;SDS011;64597;42.664;23.256;2023-05-07T08:43:57;6.57;;;4.50;;
6527;SDS011;64597;42.664;23.256;2023-05-07T08:46:34;6.18;;;4.57;;
6527;SDS011;64597;42.664;23.256;2023-05-07T08:49:11;7.00;;;6.03;;
6527;SDS011;64597;42.664;23.256;2023-05-07T08:51:49;5.15;;;4.05;;
6527;SDS011;64597;42.664;23.256;2023-05-07T08:54:22;6.10;;;4.03;;
6527;SDS011;64597;42.664;23.256;2023-05-07T08:57:03;7.22;;;4.43;;
6527;SDS011;64597;42.664;23.256;2023-05-07T08:59:39;5.15;;;4.43;;
6527;SDS011;64597;42.664;23.256;2023-05-07T09:02:20;5.45;;;4.95;;
6527;SDS011;64597;42.664;23.256;2023-05-07T09:04:58;6.97;;;4.72;;
6527;SDS011;64597;42.664;23.256;2023-05-07T09:07:38;6.95;;;4.97;;
6527;SDS011;64597;42.664;23.256;2023-05-07T09:10:17;4.78;;;3.90;;
6527;SDS011;64597;42.664;23.256;2023-05-07T09:13:21;6.97;;;5.18;;
6527;SDS011;64597;42.664;23.256;2023-05-07T09:15:53;5.57;;;4.75;;
6527;SDS011;64597;42.664;23.256;2023-05-07T09:18:42;5.88;;;4.40;;
6527;SDS011;64597;42.664;23.256;2023-05-07T09:21:28;6.72;;;4.18;;
6527;SDS011;64597;42.664;23.256;2023-05-07T09:24:09;4.65;;;3.70;;
6527;SDS011;64597;42.664;23.256;2023-05-07T09:26:47;5.15;;;4.18;;
6527;SDS011;64597;42.664;23.256;2023-05-07T09:29:33;4.72;;;3.83;;
6527;SDS011;64597;42.664;23.256;2023-05-07T09:32:07;5.03;;;3.45;;
6527;SDS011;64597;42.664;23.256;2023-05-07T09:34:49;3.75;;;3.35;;
6527;SDS011;64597;42.664;23.256;2023-05-07T09:37:21;3.45;;;3.13;;
6527;SDS011;64597;42.664;23.256;2023-05-07T09:39:56;7.70;;;3.10;;
6527;SDS011;64597;42.664;23.256;2023-05-07T09:42:35;4.50;;;3.63;;
6527;SDS011;64597;42.664;23.256;2023-05-07T09:45:07;7.10;;;3.83;;
6527;SDS011;64597;42.664;23.256;2023-05-07T09:47:59;8.50;;;4.00;;
6527;SDS011;64597;42.664;23.256;2023-05-07T09:50:52;3.85;;;3.25;;
6527;SDS011;64597;42.664;23.256;2023-05-07T09:53:31;5.07;;;3.80;;
6527;SDS011;64597;42.664;23.256;2023-05-07T09:56:15;5.45;;;3.70;;
6527;SDS011;64597;42.664;23.256;2023-05-07T09:58:49;5.28;;;4.22;;
6527;SDS011;64597;42.664;23.256;2023-05-07T10:01:27;5.95;;;3.80;;
6527;SDS011;64597;42.664;23.256;2023-05-07T10:03:58;4.97;;;3.63;;
6527;SDS011;64597;42.664;23.256;2023-05-07T10:06:46;5.35;;;4.28;;
6527;SDS011;64597;42.664;23.256;2023-05-07T10:09:27;3.67;;;3.20;;
6527;SDS011;64597;42.664;23.256;2023-05-07T10:12:07;4.32;;;3.20;;
6527;SDS011;64597;42.664;23.256;2023-05-07T10:14:49;3.35;;;2.97;;
6527;SDS011;64597;42.664;23.256;2023-05-07T10:17:24;3.28;;;2.95;;
6527;SDS011;64597;42.664;23.256;2023-05-07T10:19:52;4.53;;;3.60;;
6527;SDS011;64597;42.664;23.256;2023-05-07T10:22:24;3.65;;;2.70;;
6527;SDS011;64597;42.664;23.256;2023-05-07T10:24:57;4.05;;;2.90;;
6527;SDS011;64597;42.664;23.256;2023-05-07T10:27:37;3.70;;;2.78;;
6527;SDS011;64597;42.664;23.256;2023-05-07T10:33:22;3.58;;;2.85;;
6527;SDS011;64597;42.664;23.256;2023-05-07T10:36:01;3.15;;;2.85;;
6527;SDS011;64597;42.664;23.256;2023-05-07T10:38:36;4.50;;;2.60;;
6527;SDS011;64597;42.664;23.256;2023-05-07T10:41:10;3.75;;;2.75;;
6527;SDS011;64597;42.664;23.256;2023-05-07T10:43:47;3.53;;;3.22;;
6527;SDS011;64597;42.664;23.256;2023-05-07T10:46:19;4.65;;;3.20;;
6527;SDS011;64597;42.664;23.256;2023-05-07T10:51:46;3.97;;;3.53;;
6527;SDS011;64597;42.664;23.256;2023-05-07T10:55:20;3.22;;;2.92;;
6527;SDS011;64597;42.664;23.256;2023-05-07T11:01:06;4.70;;;3.50;;
6527;SDS011;64597;42.664;23.256;2023-05-07T11:15:34;6.82;;;3.47;;
6527;SDS011;64597;42.664;23.256;2023-05-07T11:18:20;3.60;;;3.25;;
6527;SDS011;64597;42.664;23.256;2023-05-07T11:20:56;4.70;;;3.28;;
6527;SDS011;64597;42.664;23.256;2023-05-07T11:31:28;3.13;;;2.83;;
6527;SDS011;64597;42.664;23.256;2023-05-07T11:34:10;4.38;;;2.90;;
6527;SDS011;64597;42.664;23.256;2023-05-07T11:37:01;4.28;;;3.22;;
6527;SDS011;64597;42.664;23.256;2023-05-07T11:39:44;3.92;;;2.97;;
6527;SDS011;64597;42.664;23.256;2023-05-07T11:42:33;4.80;;;3.55;;
6527;SDS011;64597;42.664;23.256;2023-05-07T11:42:34;4.80;;;3.55;;
6527;SDS011;64597;42.664;23.256;2023-05-07T11:45:22;4.20;;;3.40;;
6527;SDS011;64597;42.664;23.256;2023-05-07T11:47:56;6.25;;;3.00;;
6527;SDS011;64597;42.664;23.256;2023-05-07T11:50:35;5.40;;;2.97;;
6527;SDS011;64597;42.664;23.256;2023-05-07T11:53:26;3.15;;;2.75;;
6527;SDS011;64597;42.664;23.256;2023-05-07T11:56:11;6.70;;;3.45;;
6527;SDS011;64597;42.664;23.256;2023-05-07T11:58:47;4.70;;;2.97;;
6527;SDS011;64597;42.664;23.256;2023-05-07T12:01:26;3.28;;;2.90;;
6527;SDS011;64597;42.664;23.256;2023-05-07T12:04:09;7.18;;;3.58;;
6527;SDS011;64597;42.664;23.256;2023-05-07T12:06:53;4.22;;;3.10;;
6527;SDS011;64597;42.664;23.256;2023-05-07T12:09:38;5.40;;;3.28;;
6527;SDS011;64597;42.664;23.256;2023-05-07T12:12:10;5.32;;;2.58;;
6527;SDS011;64597;42.664;23.256;2023-05-07T12:14:50;5.05;;;3.03;;
6527;SDS011;64597;42.664;23.256;2023-05-07T12:17:30;4.57;;;3.22;;
6527;SDS011;64597;42.664;23.256;2023-05-07T12:20:22;3.50;;;3.20;;
6527;SDS011;64597;42.664;23.256;2023-05-07T12:23:06;4.20;;;3.38;;
6527;SDS011;64597;42.664;23.256;2023-05-07T12:25:41;3.15;;;2.75;;
6527;SDS011;64597;42.664;23.256;2023-05-07T12:28:19;4.20;;;3.22;;
6527;SDS011;64597;42.664;23.256;2023-05-07T12:30:53;4.25;;;3.33;;
6527;SDS011;64597;42.664;23.256;2023-05-07T12:33:28;4.53;;;3.00;;
6527;SDS011;64597;42.664;23.256;2023-05-07T12:35:57;4.30;;;3.08;;
6527;SDS011;64597;42.664;23.256;2023-05-07T12:38:38;3.83;;;2.60;;
6527;SDS011;64597;42.664;23.256;2023-05-07T12:41:15;3.65;;;2.90;;
6527;SDS011;64597;42.664;23.256;2023-05-07T12:44:07;3.30;;;2.58;;
6527;SDS011;64597;42.664;23.256;2023-05-07T12:46:38;3.00;;;2.53;;
6527;SDS011;64597;42.664;23.256;2023-05-07T12:49:10;10.25;;;3.88;;
6527;SDS011;64597;42.664;23.256;2023-05-07T12:51:54;2.95;;;2.65;;
6527;SDS011;64597;42.664;23.256;2023-05-07T12:54:33;3.97;;;2.53;;
6527;SDS011;64597;42.664;23.256;2023-05-07T12:57:12;3.03;;;2.72;;
6527;SDS011;64597;42.664;23.256;2023-05-07T12:59:47;5.72;;;2.95;;
6527;SDS011;64597;42.664;23.256;2023-05-07T13:02:18;3.20;;;2.63;;
6527;SDS011;64597;42.664;23.256;2023-05-07T13:05:04;10.38;;;3.05;;
6527;SDS011;64597;42.664;23.256;2023-05-07T13:07:38;3.38;;;2.40;;
6527;SDS011;64597;42.664;23.256;2023-05-07T13:10:27;7.13;;;2.53;;
6527;SDS011;64597;42.664;23.256;2023-05-07T13:13:03;4.57;;;3.15;;
6527;SDS011;64597;42.664;23.256;2023-05-07T13:15:46;6.18;;;2.38;;
6527;SDS011;64597;42.664;23.256;2023-05-07T13:18:15;4.50;;;2.90;;
6527;SDS011;64597;42.664;23.256;2023-05-07T13:20:56;5.65;;;2.67;;
6527;SDS011;64597;42.664;23.256;2023-05-07T13:23:31;2.78;;;2.50;;
6527;SDS011;64597;42.664;23.256;2023-05-07T13:26:10;3.17;;;2.83;;
6527;SDS011;64597;42.664;23.256;2023-05-07T13:28:59;3.20;;;2.90;;
6527;SDS011;64597;42.664;23.256;2023-05-07T13:31:30;2.70;;;2.50;;
6527;SDS011;64597;42.664;23.256;2023-05-07T13:34:09;5.53;;;2.75;;
6527;SDS011;64597;42.664;23.256;2023-05-07T13:36:44;2.95;;;2.65;;
6527;SDS011;64597;42.664;23.256;2023-05-07T13:39:20;3.05;;;2.30;;
6527;SDS011;64597;42.664;23.256;2023-05-07T13:41:54;3.28;;;2.92;;
6527;SDS011;64597;42.664;23.256;2023-05-07T13:44:30;3.00;;;2.70;;
6527;SDS011;64597;42.664;23.256;2023-05-07T13:47:05;3.30;;;2.50;;
6527;SDS011;64597;42.664;23.256;2023-05-07T13:49:39;2.80;;;2.35;;
6527;SDS011;64597;42.664;23.256;2023-05-07T13:52:21;2.72;;;2.30;;
6527;SDS011;64597;42.664;23.256;2023-05-07T13:55:01;5.13;;;2.88;;
6527;SDS011;64597;42.664;23.256;2023-05-07T13:57:35;2.58;;;2.33;;
6527;SDS011;64597;42.664;23.256;2023-05-07T14:00:06;3.63;;;2.40;;
6527;SDS011;64597;42.664;23.256;2023-05-07T14:02:41;7.13;;;2.70;;
6527;SDS011;64597;42.664;23.256;2023-05-07T14:05:16;2.60;;;2.40;;
6527;SDS011;64597;42.664;23.256;2023-05-07T14:07:57;2.80;;;2.47;;
6527;SDS011;64597;42.664;23.256;2023-05-07T14:10:31;3.30;;;2.15;;
6527;SDS011;64597;42.664;23.256;2023-05-07T14:13:03;3.80;;;2.50;;
6527;SDS011;64597;42.664;23.256;2023-05-07T14:15:41;3.08;;;2.38;;
6527;SDS011;64597;42.664;23.256;2023-05-07T14:18:16;3.67;;;2.70;;
6527;SDS011;64597;42.664;23.256;2023-05-07T14:20:54;2.60;;;2.30;;
6527;SDS011;64597;42.664;23.256;2023-05-07T14:23:29;3.33;;;3.00;;
6527;SDS011;64597;42.664;23.256;2023-05-07T14:26:07;4.32;;;2.47;;
6527;SDS011;64597;42.664;23.256;2023-05-07T14:28:39;2.95;;;2.55;;
6527;SDS011;64597;42.664;23.256;2023-05-07T14:31:15;3.60;;;2.60;;
6527;SDS011;64597;42.664;23.256;2023-05-07T14:33:47;4.50;;;2.47;;
6527;SDS011;64597;42.664;23.256;2023-05-07T14:36:17;2.63;;;2.42;;
6527;SDS011;64597;42.664;23.256;2023-05-07T14:38:52;2.88;;;2.53;;
6527;SDS011;64597;42.664;23.256;2023-05-07T14:41:22;2.90;;;2.60;;
6527;SDS011;64597;42.664;23.256;2023-05-07T14:44:00;4.15;;;3.05;;
6527;SDS011;64597;42.664;23.256;2023-05-07T14:46:33;3.50;;;2.05;;
6527;SDS011;64597;42.664;23.256;2023-05-07T14:49:11;4.45;;;3.25;;
6527;SDS011;64597;42.664;23.256;2023-05-07T14:51:49;4.20;;;2.83;;
6527;SDS011;64597;42.664;23.256;2023-05-07T14:54:24;3.47;;;2.28;;
6527;SDS011;64597;42.664;23.256;2023-05-07T14:56:57;4.97;;;2.70;;
6527;SDS011;64597;42.664;23.256;2023-05-07T14:59:25;3.47;;;2.55;;
6527;SDS011;64597;42.664;23.256;2023-05-07T15:01:59;3.38;;;2.55;;
6527;SDS011;64597;42.664;23.256;2023-05-07T15:04:33;3.95;;;2.60;;
6527;SDS011;64597;42.664;23.256;2023-05-07T15:07:15;4.53;;;2.95;;
6527;SDS011;64597;42.664;23.256;2023-05-07T15:09:48;3.28;;;2.50;;
6527;SDS011;64597;42.664;23.256;2023-05-07T15:12:19;3.35;;;2.90;;
6527;SDS011;64597;42.664;23.256;2023-05-07T15:14:51;4.78;;;3.20;;
6527;SDS011;64597;42.664;23.256;2023-05-07T15:17:29;3.75;;;3.10;;
6527;SDS011;64597;42.664;23.256;2023-05-07T15:20:03;6.43;;;3.03;;
6527;SDS011;64597;42.664;23.256;2023-05-07T15:22:41;2.92;;;2.65;;
6527;SDS011;64597;42.664;23.256;2023-05-07T15:25:17;2.92;;;2.22;;
6527;SDS011;64597;42.664;23.256;2023-05-07T15:27:51;5.72;;;2.53;;
6527;SDS011;64597;42.664;23.256;2023-05-07T15:30:23;3.70;;;2.40;;
6527;SDS011;64597;42.664;23.256;2023-05-07T15:32:58;3.67;;;2.50;;
6527;SDS011;64597;42.664;23.256;2023-05-07T15:35:30;4.43;;;2.55;;
6527;SDS011;64597;42.664;23.256;2023-05-07T15:38:04;4.70;;;2.67;;
6527;SDS011;64597;42.664;23.256;2023-05-07T15:40:37;2.70;;;2.42;;
6527;SDS011;64597;42.664;23.256;2023-05-07T15:43:15;2.63;;;2.35;;
6527;SDS011;64597;42.664;23.256;2023-05-07T15:45:47;3.78;;;2.65;;
6527;SDS011;64597;42.664;23.256;2023-05-07T15:48:26;3.45;;;2.22;;
6527;SDS011;64597;42.664;23.256;2023-05-07T15:51:01;3.30;;;2.60;;
6527;SDS011;64597;42.664;23.256;2023-05-07T15:53:47;4.47;;;2.70;;
6527;SDS011;64597;42.664;23.256;2023-05-07T15:56:36;2.65;;;2.40;;
6527;SDS011;64597;42.664;23.256;2023-05-07T15:59:10;3.03;;;2.58;;
6527;SDS011;64597;42.664;23.256;2023-05-07T16:01:52;3.65;;;2.47;;
6527;SDS011;64597;42.664;23.256;2023-05-07T16:04:33;2.95;;;2.45;;
6527;SDS011;64597;42.664;23.256;2023-05-07T16:07:15;4.10;;;2.55;;
6527;SDS011;64597;42.664;23.256;2023-05-07T16:09:59;3.40;;;2.63;;
6527;SDS011;64597;42.664;23.256;2023-05-07T16:13:07;5.43;;;3.17;;
6527;SDS011;64597;42.664;23.256;2023-05-07T16:15:47;4.10;;;2.97;;
6527;SDS011;64597;42.664;23.256;2023-05-07T16:18:31;2.60;;;2.40;;
6527;SDS011;64597;42.664;23.256;2023-05-07T16:21:17;3.38;;;2.55;;
6527;SDS011;64597;42.664;23.256;2023-05-07T16:26:15;5.35;;;2.20;;